Time;durP1;ratioP1;P1;durP2;ratioP2;P2;SDS_P1;SDS_P2;PMS_P1;PMS_P2;Temp;Humidity;BMP_temperature;BMP_pressure;BME280_temperature;BME280_humidity;BME280_pressure;Samples;Min_cycle;Max_cycle;Signal;HPM_P1;HPM_P2
2022/12/04 00:01:22;;;;;;;139.23;56.42;;;;;;;-0.68;96.39;101596.13;7393261;19;20022;-70
2022/12/04 00:03:54;;;;;;;144.45;58.45;;;;;;;-0.68;96.39;101593.56;7393175;19;20419;-68
2022/12/04 00:06:24;;;;;;;135.18;53.47;;;;;;;-0.69;95.93;101587.50;7392716;19;20022;-70
2022/12/04 00:08:53;;;;;;;149.40;57.22;;;;;;;-0.69;95.94;101591.81;7395019;19;20028;-71
2022/12/04 00:11:25;;;;;;;138.77;54.13;;;;;;;-0.70;96.36;101584.88;7394613;19;20018;-70
2022/12/04 00:13:57;;;;;;;154.93;60.28;;;;;;;-0.71;96.20;101577.97;7393394;19;20035;-70
2022/12/04 00:16:28;;;;;;;142.02;56.47;;;;;;;-0.70;96.12;101584.88;7394013;19;20034;-71
2022/12/04 00:18:57;;;;;;;148.85;56.72;;;;;;;-0.71;96.18;101583.13;7393116;19;20357;-70
2022/12/04 00:21:27;;;;;;;142.18;57.60;;;;;;;-0.69;96.34;101576.34;7393589;19;20384;-70
2022/12/04 00:23:55;;;;;;;145.13;56.95;;;;;;;-0.71;96.13;101576.28;7392591;19;20469;-70
2022/12/04 00:26:32;;;;;;;141.73;57.83;;;;;;;-0.70;96.34;101579.72;7393671;19;20513;-69
2022/12/04 00:29:03;;;;;;;149.35;57.33;;;;;;;-0.72;96.36;101573.63;7393687;19;20481;-70
2022/12/04 00:31:39;;;;;;;149.70;59.38;;;;;;;-0.71;96.23;101565.97;7393496;19;20481;-69
2022/12/04 00:34:08;;;;;;;147.25;57.75;;;;;;;-0.71;96.23;101557.34;7392732;19;20035;-70
2022/12/04 00:36:36;;;;;;;152.55;60.20;;;;;;;-0.72;96.16;101560.75;7393910;19;20015;-71
2022/12/04 00:39:06;;;;;;;146.95;59.92;;;;;;;-0.72;96.26;101560.75;7391588;19;20019;-69
2022/12/04 00:41:35;;;;;;;137.10;56.53;;;;;;;-0.72;96.52;101568.47;7393755;19;20032;-69
2022/12/04 00:44:06;;;;;;;135.27;54.22;;;;;;;-0.73;96.05;101559.00;7392279;19;20023;-70
2022/12/04 00:46:47;;;;;;;142.20;57.05;;;;;;;-0.74;96.29;101562.41;7391601;19;20422;-70
2022/12/04 00:49:16;;;;;;;139.48;59.45;;;;;;;-0.77;96.38;101558.00;7394063;19;20026;-70
2022/12/04 00:51:44;;;;;;;142.93;57.72;;;;;;;-0.75;96.12;101560.63;7393115;19;20428;-70
2022/12/04 00:54:13;;;;;;;142.40;56.33;;;;;;;-0.77;96.22;101554.53;7394814;19;20026;-70
2022/12/04 00:56:41;;;;;;;145.95;59.80;;;;;;;-0.84;96.30;101541.41;7400767;19;20085;-70
2022/12/04 00:59:12;;;;;;;135.98;57.13;;;;;;;-0.78;96.67;101556.25;7398072;19;20027;-71
2022/12/04 01:01:41;;;;;;;147.07;56.72;;;;;;;-0.78;96.81;101561.41;7401225;19;20022;-70
2022/12/04 01:04:10;;;;;;;138.45;58.30;;;;;;;-0.76;97.02;101564.91;7398822;19;20037;-71
2022/12/04 01:06:38;;;;;;;134.30;56.50;;;;;;;-0.75;96.82;101568.38;7400477;19;20022;-71
2022/12/04 01:09:07;;;;;;;142.32;56.95;;;;;;;-0.72;96.91;101578.78;7399968;19;20077;-71
2022/12/04 01:11:35;;;;;;;140.43;57.60;;;;;;;-0.70;96.78;101574.56;7400280;19;20014;-70
2022/12/04 01:14:04;;;;;;;142.55;58.03;;;;;;;-0.69;96.94;101579.78;7397674;19;20023;-71
2022/12/04 01:16:37;;;;;;;140.50;57.33;;;;;;;-0.68;96.49;101572.94;7400026;19;20031;-71
2022/12/04 01:19:06;;;;;;;132.90;56.47;;;;;;;-0.69;96.80;101582.34;7398333;19;20516;-71
2022/12/04 01:21:35;;;;;;;132.80;55.55;;;;;;;-0.68;96.66;101578.97;7399481;19;20445;-71
2022/12/04 01:24:04;;;;;;;137.32;57.70;;;;;;;-0.68;96.76;101578.97;7398007;19;20022;-71
2022/12/04 01:26:33;;;;;;;134.10;56.80;;;;;;;-0.69;97.18;101578.91;7399341;19;20018;-70
2022/12/04 01:29:01;;;;;;;146.00;57.80;;;;;;;-0.67;96.82;101583.31;7399356;19;20022;-70
2022/12/04 01:31:30;;;;;;;143.38;58.22;;;;;;;-0.65;96.67;101578.19;7399727;19;20018;-68
2022/12/04 01:34:01;;;;;;;136.68;57.70;;;;;;;-0.66;96.71;101573.84;7397982;19;20091;-69
2022/12/04 01:36:30;;;;;;;145.40;59.88;;;;;;;-0.66;96.47;101569.59;7399543;19;20387;-69
2022/12/04 01:38:59;;;;;;;147.10;59.08;;;;;;;-0.66;96.60;101572.19;7397970;19;20047;-69
2022/12/04 01:41:30;;;;;;;143.15;58.80;;;;;;;-0.67;96.80;101569.53;7398922;19;20435;-69
2022/12/04 01:44:23;;;;;;;139.57;58.40;;;;;;;-0.67;96.98;101565.25;7397090;19;20037;-69
2022/12/04 01:46:54;;;;;;;148.25;61.53;;;;;;;-0.67;97.09;101573.00;7396641;19;20070;-69
2022/12/04 01:49:30;;;;;;;134.10;57.83;;;;;;;-0.66;97.02;101560.97;7397986;19;20078;-69
2022/12/04 01:52:01;;;;;;;136.05;58.55;;;;;;;-0.65;97.25;101557.59;7399839;19;20027;-69
2022/12/04 01:54:34;;;;;;;142.65;57.22;;;;;;;-0.65;97.10;101549.84;7397063;19;20022;-69
2022/12/04 01:57:06;;;;;;;141.25;56.50;;;;;;;-0.65;97.10;101547.28;7399216;19;20026;-70
2022/12/04 01:59:40;;;;;;;140.13;57.50;;;;;;;-0.65;96.61;101552.44;7397414;19;20028;-72
2022/12/04 02:02:11;;;;;;;147.55;60.40;;;;;;;-0.66;96.50;101541.25;7398663;19;20035;-73
2022/12/04 02:04:44;;;;;;;142.98;59.85;;;;;;;-0.66;96.72;101543.81;7394678;19;20014;-73
2022/12/04 02:07:12;;;;;;;135.98;58.15;;;;;;;-0.66;96.92;101537.78;7396380;19;20018;-73
2022/12/04 02:09:44;;;;;;;136.70;56.35;;;;;;;-0.66;96.79;101545.50;7397968;19;20018;-72
2022/12/04 02:12:22;;;;;;;142.77;55.85;;;;;;;-0.67;96.91;101538.59;7397871;19;20025;-73
2022/12/04 02:14:57;;;;;;;145.30;58.70;;;;;;;-0.66;96.98;101542.94;7396664;19;20384;-73
2022/12/04 02:17:30;;;;;;;138.63;57.97;;;;;;;-0.65;97.39;101531.81;7397752;19;20010;-67
2022/12/04 02:20:26;;;;;;;146.77;60.58;;;;;;;-0.64;97.24;101527.50;7395629;19;20486;-68
2022/12/04 02:23:23;;;;;;;145.00;57.35;;;;;;;-0.64;96.98;101525.84;7396962;19;20092;-68
2022/12/04 02:26:03;;;;;;;142.68;55.70;;;;;;;-0.66;97.06;101520.63;7398255;19;20018;-70
2022/12/04 02:28:40;;;;;;;152.15;60.20;;;;;;;-0.64;97.12;101528.41;7397759;19;20082;-68
2022/12/04 02:31:14;;;;;;;141.27;57.65;;;;;;;-0.64;97.27;101535.25;7396252;19;20074;-73
2022/12/04 02:33:48;;;;;;;142.85;56.47;;;;;;;-0.64;97.08;101522.34;7395357;19;20261;-73
2022/12/04 02:36:22;;;;;;;141.60;58.42;;;;;;;-0.63;97.36;101522.44;7395271;19;20032;-73
2022/12/04 02:38:55;;;;;;;153.57;60.17;;;;;;;-0.64;97.06;101520.69;7395349;19;20014;-69
2022/12/04 02:41:29;;;;;;;145.73;56.92;;;;;;;-0.64;97.21;101515.53;7397747;19;20015;-69
2022/12/04 02:44:06;;;;;;;139.60;59.40;;;;;;;-0.64;97.39;101512.94;7395068;19;20025;-67
2022/12/04 02:46:51;;;;;;;144.30;57.30;;;;;;;-0.63;97.35;101518.97;7395992;19;20011;-72
2022/12/04 02:49:25;;;;;;;137.98;58.25;;;;;;;-0.63;97.41;101514.72;7395735;19;20104;-70
2022/12/04 02:51:57;;;;;;;145.93;59.97;;;;;;;-0.62;97.64;101515.56;7395679;19;20018;-73
2022/12/04 02:54:32;;;;;;;148.93;60.22;;;;;;;-0.62;97.21;101507.84;7395542;19;20018;-72
2022/12/04 02:57:04;;;;;;;153.00;59.22;;;;;;;-0.64;97.42;101509.47;7394757;19;20014;-69
2022/12/04 02:59:38;;;;;;;139.55;58.42;;;;;;;-0.62;97.41;101515.56;7395933;19;20098;-69
2022/12/04 03:02:14;;;;;;;141.38;57.72;;;;;;;-0.63;97.35;101513.81;7396369;19;20424;-68
2022/12/04 03:04:44;;;;;;;154.25;60.10;;;;;;;-0.63;97.62;101514.72;7394335;19;20011;-72
2022/12/04 03:07:15;;;;;;;147.65;58.30;;;;;;;-0.66;97.41;101505.16;7394410;19;20493;-69
2022/12/04 03:09:49;;;;;;;145.48;57.13;;;;;;;-0.64;97.44;101507.78;7396423;19;20603;-76
2022/12/04 03:12:28;;;;;;;153.90;58.45;;;;;;;-0.63;97.58;101508.66;7396700;19;20019;-71
2022/12/04 03:15:04;;;;;;;146.07;57.92;;;;;;;-0.63;97.48;101509.56;7394299;19;20023;-71
2022/12/04 03:17:39;;;;;;;144.30;58.45;;;;;;;-0.63;97.71;101503.50;7394145;19;20018;-72
2022/12/04 03:20:12;;;;;;;146.00;59.80;;;;;;;-0.64;97.60;101510.38;7395017;19;20031;-71
2022/12/04 03:22:45;;;;;;;144.38;59.10;;;;;;;-0.64;97.42;101509.47;7395592;19;20403;-72
2022/12/04 03:25:14;;;;;;;133.85;58.30;;;;;;;-0.64;97.59;101506.91;7396344;19;20027;-71
2022/12/04 03:27:50;;;;;;;146.98;59.50;;;;;;;-0.63;97.86;101521.53;7395484;19;20506;-71
2022/12/04 03:30:23;;;;;;;154.50;60.88;;;;;;;-0.62;98.00;101523.31;7396007;19;20026;-71
2022/12/04 03:32:57;;;;;;;159.77;61.30;;;;;;;-0.61;97.88;101520.78;7393940;19;20010;-72
2022/12/04 03:35:29;;;;;;;148.98;59.35;;;;;;;-0.66;97.66;101510.31;7394293;19;20022;-71
2022/12/04 03:38:03;;;;;;;152.88;58.10;;;;;;;-0.60;97.96;101517.38;7395957;19;20031;-71
2022/12/04 03:40:36;;;;;;;;;;;;;;;-0.60;97.97;101522.53;7394850;19;20083;-71
2022/12/04 03:43:10;;;;;;;157.57;60.00;;;;;;;-0.60;97.94;101522.53;7393301;19;19931;-71
2022/12/04 03:45:45;;;;;;;149.88;58.30;;;;;;;-0.62;98.07;101521.63;7395788;19;20035;-71
2022/12/04 03:48:20;;;;;;;154.05;59.90;;;;;;;-0.60;98.00;101521.69;7392765;19;20473;-72
2022/12/04 03:50:54;;;;;;;151.73;60.40;;;;;;;-0.59;97.74;101515.72;7395675;19;20018;-72
2022/12/04 03:53:27;;;;;;;157.00;61.67;;;;;;;-0.61;97.95;101507.88;7393711;19;20017;-71
2022/12/04 03:56:00;;;;;;;143.50;58.53;;;;;;;-0.60;97.89;101507.06;7392949;19;20481;-72
2022/12/04 03:58:33;;;;;;;148.98;60.83;;;;;;;-0.59;98.13;101506.25;7395187;19;20019;-72
2022/12/04 04:01:09;;;;;;;151.90;58.92;;;;;;;-0.59;98.25;101501.09;7395371;19;20035;-71
2022/12/04 04:03:41;;;;;;;151.13;58.60;;;;;;;-0.57;98.02;101498.56;7394125;19;20022;-72
2022/12/04 04:06:14;;;;;;;150.77;58.67;;;;;;;-0.59;98.07;101492.50;7394857;19;20039;-72
2022/12/04 04:08:47;;;;;;;155.73;60.90;;;;;;;-0.58;98.40;101494.25;7395083;19;20022;-72
2022/12/04 04:11:20;;;;;;;151.80;58.55;;;;;;;-0.56;98.18;101498.63;7394380;19;20078;-72
2022/12/04 04:24:54;;;;;;;158.88;59.88;;;;;;;-0.57;98.17;101496.91;7392413;19;20446;-72
2022/12/04 04:27:22;;;;;;;158.60;59.60;;;;;;;-0.57;98.19;101494.31;7394673;19;20018;-72
2022/12/04 04:29:53;;;;;;;162.50;60.83;;;;;;;-0.56;98.51;101497.75;7400196;19;20018;-72
2022/12/04 04:32:34;;;;;;;162.45;60.60;;;;;;;-0.57;98.42;101493.41;7399090;19;20023;-70
2022/12/04 04:35:10;;;;;;;167.20;64.30;;;;;;;-0.57;98.33;101501.16;7401999;19;20039;-72
2022/12/04 04:37:50;;;;;;;160.00;60.00;;;;;;;-0.58;98.51;101491.66;7399170;19;20031;-72
2022/12/04 04:40:25;;;;;;;160.43;62.03;;;;;;;-0.59;98.34;101490.78;7399524;19;20031;-73
2022/12/04 04:43:01;;;;;;;165.95;61.25;;;;;;;-0.58;98.66;101492.56;7401144;19;20023;-71
2022/12/04 04:45:36;;;;;;;170.82;61.42;;;;;;;-0.59;98.37;101488.22;7401022;19;20577;-71
2022/12/04 04:48:12;;;;;;;164.23;60.30;;;;;;;-0.58;98.49;101494.25;7398753;19;20082;-72
2022/12/04 04:50:41;;;;;;;176.48;61.88;;;;;;;-0.58;98.50;101497.72;7400680;19;20488;-72
2022/12/04 04:53:14;;;;;;;167.55;60.28;;;;;;;-0.57;98.57;101507.22;7399739;19;20423;-72
2022/12/04 04:55:43;;;;;;;152.10;59.72;;;;;;;-0.59;98.74;101514.00;7400555;19;20031;-72
2022/12/04 04:58:15;;;;;;;163.55;62.80;;;;;;;-0.59;98.60;101513.13;7400286;19;20501;-72
2022/12/04 05:00:58;;;;;;;155.80;57.92;;;;;;;-0.58;98.84;101499.38;7398379;19;20018;-72
2022/12/04 05:03:29;;;;;;;165.23;59.55;;;;;;;-0.59;98.80;101506.25;7399134;19;20078;-72
2022/12/04 05:05:58;;;;;;;167.70;61.28;;;;;;;-0.59;98.66;101501.09;7400787;19;20075;-72
2022/12/04 05:08:27;;;;;;;170.88;65.45;;;;;;;-0.58;98.73;101496.81;7399999;19;20488;-72
2022/12/04 05:10:56;;;;;;;165.95;60.20;;;;;;;-0.60;98.69;101496.75;7400621;19;20035;-72
2022/12/04 05:13:24;;;;;;;179.52;63.33;;;;;;;-0.59;99.03;101497.66;7398186;19;20035;-72
2022/12/04 05:15:58;;;;;;;174.65;61.53;;;;;;;-0.58;99.06;101496.81;7399798;19;20037;-72
2022/12/04 05:18:29;;;;;;;169.27;63.00;;;;;;;-0.61;98.85;101487.28;7400561;19;20031;-72
2022/12/04 05:20:55;;;;;;;168.52;62.75;;;;;;;-0.57;98.92;101498.56;7398216;19;20026;-71
2022/12/04 05:23:24;;;;;;;169.10;63.00;;;;;;;-0.59;99.13;101492.50;7398818;19;20018;-72
2022/12/04 05:25:59;;;;;;;170.82;63.88;;;;;;;-0.59;98.98;101493.38;7399878;19;20015;-71
2022/12/04 05:28:28;;;;;;;170.50;63.03;;;;;;;-0.57;99.13;101494.31;7399417;19;20418;-72
2022/12/04 05:30:57;;;;;;;174.77;61.20;;;;;;;-0.62;98.95;101490.69;7399499;19;20091;-72
2022/12/04 05:33:29;;;;;;;170.93;62.05;;;;;;;-0.58;98.92;101497.72;7398021;19;20015;-72
2022/12/04 05:35:59;;;;;;;177.43;61.22;;;;;;;-0.59;99.08;101490.78;7399157;19;20031;-72
2022/12/04 05:38:28;;;;;;;179.65;62.13;;;;;;;-0.58;99.34;101482.25;7398995;19;20371;-71
2022/12/04 05:40:56;;;;;;;166.82;61.30;;;;;;;-0.57;99.23;101484.00;7396985;19;20027;-71
2022/12/04 05:43:25;;;;;;;183.43;62.85;;;;;;;-0.57;99.20;101484.00;7398188;19;20019;-72
2022/12/04 05:45:53;;;;;;;169.45;59.25;;;;;;;-0.56;99.24;101488.31;7397061;19;20043;-71
2022/12/04 05:48:22;;;;;;;171.40;63.13;;;;;;;-0.57;99.23;101486.59;7397272;19;20007;-71
2022/12/04 05:50:53;;;;;;;184.23;65.90;;;;;;;-0.57;99.23;101484.00;7398689;19;20031;-72
2022/12/04 05:53:22;;;;;;;175.57;61.25;;;;;;;-0.56;99.57;101483.16;7398297;19;20384;-72
2022/12/04 05:55:56;;;;;;;176.82;64.10;;;;;;;-0.56;99.52;101484.88;7396331;19;20031;-72
2022/12/04 05:58:24;;;;;;;;;;;;;;;-0.57;99.62;101477.94;7397197;19;20403;-72
2022/12/04 06:00:53;;;;;;;181.18;62.90;;;;;;;-0.60;99.57;101483.88;7396679;19;19922;-72
2022/12/04 06:03:22;;;;;;;172.10;61.45;;;;;;;-0.56;99.78;101484.88;7397377;19;20018;-71
2022/12/04 06:05:53;;;;;;;183.68;61.60;;;;;;;-0.55;99.63;101489.22;7396448;19;20035;-71
2022/12/04 06:08:21;;;;;;;172.73;61.55;;;;;;;-0.56;99.79;101485.72;7398527;19;20027;-72
2022/12/04 06:10:50;;;;;;;184.30;63.88;;;;;;;-0.54;99.83;101486.69;7396440;19;20019;-73
2022/12/04 06:13:19;;;;;;;192.90;62.33;;;;;;;-0.54;99.75;101480.66;7397233;19;20014;-73
2022/12/04 06:15:47;;;;;;;178.63;63.28;;;;;;;-0.54;99.83;101473.78;7396504;19;20010;-72
2022/12/04 06:18:16;;;;;;;181.80;63.50;;;;;;;-0.53;99.68;101478.13;7397691;19;20018;-72
2022/12/04 06:20:44;;;;;;;178.55;63.50;;;;;;;-0.53;99.74;101475.56;7396592;19;20031;-72
2022/12/04 06:23:15;;;;;;;184.65;61.65;;;;;;;-0.53;99.96;101485.88;7397158;19;20018;-72
2022/12/04 06:25:44;;;;;;;179.13;62.20;;;;;;;-0.52;99.89;101479.88;7398462;19;20014;-72
2022/12/04 06:28:12;;;;;;;173.95;61.88;;;;;;;-0.52;100.00;101477.31;7397386;19;20481;-71
2022/12/04 06:30:41;;;;;;;169.05;62.60;;;;;;;-0.51;100.00;101483.34;7397566;19;20023;-71
2022/12/04 06:33:09;;;;;;;177.00;62.97;;;;;;;-0.51;99.88;101480.75;7396915;19;20028;-72
2022/12/04 06:35:38;;;;;;;190.93;62.80;;;;;;;-0.51;99.82;101489.34;7397503;19;20028;-72
2022/12/04 06:38:06;;;;;;;184.10;63.42;;;;;;;-0.51;100.00;101485.91;7395636;19;20019;-71
2022/12/04 06:40:42;;;;;;;168.63;61.75;;;;;;;-0.51;100.00;101478.19;7396957;19;20041;-72
2022/12/04 06:43:10;;;;;;;179.38;61.90;;;;;;;-0.49;100.00;101481.69;7396191;19;20080;-71
2022/12/04 06:45:39;;;;;;;180.32;65.13;;;;;;;-0.48;100.00;101472.25;7396155;19;20045;-72
2022/12/04 06:48:07;;;;;;;181.75;64.75;;;;;;;-0.48;99.96;101477.41;7395682;19;20355;-73
2022/12/04 06:50:36;;;;;;;187.65;66.25;;;;;;;-0.47;100.00;101479.16;7394454;19;20509;-70
2022/12/04 06:53:04;;;;;;;191.73;65.18;;;;;;;-0.46;100.00;101470.63;7395151;19;20477;-71
2022/12/04 06:55:33;;;;;;;180.13;63.55;;;;;;;-0.46;100.00;101488.66;7396974;19;20037;-72
2022/12/04 06:58:04;;;;;;;188.55;64.30;;;;;;;-0.46;100.00;101486.09;7396927;19;20028;-71
2022/12/04 07:00:32;;;;;;;179.77;63.70;;;;;;;-0.47;100.00;101482.59;7396107;19;20014;-72
2022/12/04 07:03:01;;;;;;;179.27;61.83;;;;;;;-0.49;100.00;101481.69;7396148;19;20074;-72
2022/12/04 07:05:29;;;;;;;177.88;62.38;;;;;;;-0.46;100.00;101475.78;7394903;19;20019;-72
2022/12/04 07:07:58;;;;;;;176.23;62.13;;;;;;;-0.45;100.00;101480.97;7394722;19;20018;-72
2022/12/04 07:10:26;;;;;;;182.63;64.03;;;;;;;-0.44;100.00;101489.56;7396367;19;20022;-72
2022/12/04 07:12:55;;;;;;;180.73;64.05;;;;;;;-0.49;100.00;101481.69;7395430;19;20481;-73
2022/12/04 07:15:26;;;;;;;190.75;65.18;;;;;;;-0.44;100.00;101481.84;7395856;19;20024;-72
2022/12/04 07:17:54;;;;;;;193.05;63.85;;;;;;;-0.43;100.00;101489.66;7395790;19;20526;-72
2022/12/04 07:20:23;;;;;;;170.27;61.03;;;;;;;-0.43;100.00;101481.03;7395064;19;20011;-70
2022/12/04 07:22:52;;;;;;;178.73;61.53;;;;;;;-0.41;100.00;101481.97;7395162;19;20018;-71
2022/12/04 07:25:21;;;;;;;185.40;64.05;;;;;;;-0.41;100.00;101482.81;7395459;19;20359;-71
2022/12/04 07:27:49;;;;;;;184.73;65.35;;;;;;;-0.40;100.00;101478.56;7394119;19;20014;-73
2022/12/04 07:30:18;;;;;;;178.52;62.70;;;;;;;-0.39;100.00;101481.19;7395844;19;20035;-72
2022/12/04 07:32:49;;;;;;;173.00;62.05;;;;;;;-0.39;100.00;101483.78;7395408;19;20035;-73
2022/12/04 07:35:18;;;;;;;183.50;61.35;;;;;;;-0.36;100.00;101483.00;7395345;19;20014;-72
2022/12/04 07:37:46;;;;;;;168.30;62.42;;;;;;;-0.38;100.00;101484.63;7395126;19;20501;-72
2022/12/04 07:40:15;;;;;;;173.18;61.55;;;;;;;-0.39;100.00;101476.03;7394610;19;20027;-72
2022/12/04 07:42:44;;;;;;;174.88;62.47;;;;;;;-0.36;100.00;101488.16;7393170;19;20027;-72
2022/12/04 07:45:13;;;;;;;184.77;62.63;;;;;;;-0.36;100.00;101493.31;7395392;19;20018;-72
2022/12/04 07:47:41;;;;;;;178.63;63.08;;;;;;;-0.37;100.00;101487.28;7394335;19;20014;-72
2022/12/04 07:50:12;;;;;;;172.85;62.65;;;;;;;-0.34;100.00;101494.25;7395130;19;20022;-72
2022/12/04 07:52:41;;;;;;;172.00;63.05;;;;;;;-0.34;100.00;101504.56;7393101;19;20378;-72
2022/12/04 07:55:11;;;;;;;173.73;62.67;;;;;;;-0.34;100.00;101508.00;7394601;19;20430;-73
2022/12/04 07:57:39;;;;;;;187.75;68.18;;;;;;;-0.34;100.00;101495.13;7394909;19;20022;-71
2022/12/04 08:00:11;;;;;;;182.77;64.70;;;;;;;-0.32;100.00;101497.75;7394321;19;20026;-71
2022/12/04 08:02:40;;;;;;;185.73;64.90;;;;;;;-0.32;100.00;101497.75;7394195;19;20074;-72
2022/12/04 08:05:09;;;;;;;186.88;65.22;;;;;;;-0.31;100.00;101499.50;7401783;19;20018;-72
2022/12/04 08:07:46;;;;;;;186.35;64.18;;;;;;;-0.32;100.00;101497.75;7401950;19;20018;-72
2022/12/04 08:10:15;;;;;;;197.30;68.65;;;;;;;-0.30;100.00;101490.94;7399961;19;20011;-72
2022/12/04 08:12:44;;;;;;;177.00;60.70;;;;;;;-0.29;100.00;101497.88;7399283;19;20015;-73
2022/12/04 08:15:13;;;;;;;175.43;64.78;;;;;;;-0.29;100.00;101497.88;7401781;19;20015;-73
2022/12/04 08:17:41;;;;;;;181.18;62.78;;;;;;;-0.31;100.00;101499.50;7401617;19;20019;-71
2022/12/04 08:20:11;;;;;;;177.50;59.70;;;;;;;-0.28;100.00;101499.59;7401331;19;20023;-72
2022/12/04 08:22:39;;;;;;;168.02;62.72;;;;;;;-0.28;100.00;101493.56;7401430;19;20045;-71
2022/12/04 08:25:11;;;;;;;171.13;63.10;;;;;;;-0.27;100.00;101503.06;7401421;19;20410;-72
2022/12/04 08:27:40;;;;;;;168.25;61.42;;;;;;;-0.28;100.00;101502.19;7401359;19;20019;-72
2022/12/04 08:30:10;;;;;;;172.20;61.80;;;;;;;-0.29;100.00;101503.03;7401656;19;20045;-72
2022/12/04 08:32:38;;;;;;;183.45;63.13;;;;;;;-0.25;100.00;101504.88;7401114;19;20035;-71
2022/12/04 08:35:07;;;;;;;169.75;60.03;;;;;;;-0.24;100.00;101500.59;7401102;19;20011;-72
2022/12/04 08:37:36;;;;;;;177.35;61.90;;;;;;;-0.23;100.00;101502.34;7401031;19;20537;-72
2022/12/04 08:40:12;;;;;;;184.43;61.25;;;;;;;-0.21;100.00;101501.56;7400662;19;20488;-72
2022/12/04 08:42:43;;;;;;;177.35;62.28;;;;;;;-0.20;100.00;101505.06;7401172;19;20022;-72
2022/12/04 08:45:12;;;;;;;174.90;58.72;;;;;;;-0.20;100.00;101505.91;7401512;19;20014;-72
2022/12/04 08:47:41;;;;;;;180.25;60.70;;;;;;;-0.18;100.00;101514.59;7399503;19;20020;-72
2022/12/04 08:50:10;;;;;;;172.52;65.28;;;;;;;-0.17;100.00;101506.00;7398203;19;20026;-72
2022/12/04 08:52:39;;;;;;;195.63;64.35;;;;;;;-0.13;100.00;101513.88;7397450;19;20375;-72
2022/12/04 08:55:08;;;;;;;198.02;64.10;;;;;;;-0.10;100.00;101509.69;7397418;19;20022;-71
2022/12/04 08:57:37;;;;;;;188.98;63.88;;;;;;;-0.06;100.00;101503.81;7398048;19;20027;-71
2022/12/04 09:00:10;;;;;;;198.20;64.93;;;;;;;-0.03;100.00;101508.19;7397298;19;20491;-72
2022/12/04 09:02:38;;;;;;;188.18;63.25;;;;;;;0.01;100.00;101504.03;7398007;19;20022;-72
2022/12/04 09:05:07;;;;;;;188.63;62.55;;;;;;;0.06;100.00;101512.78;7397986;19;20018;-71
2022/12/04 09:07:35;;;;;;;167.15;61.47;;;;;;;0.06;100.00;101520.53;7397620;19;20368;-72
2022/12/04 09:10:04;;;;;;;180.38;65.80;;;;;;;0.08;100.00;101516.31;7397519;19;20081;-73
2022/12/04 09:12:32;;;;;;;168.45;60.88;;;;;;;0.08;100.00;101516.31;7397422;19;20394;-72
2022/12/04 09:15:01;;;;;;;174.35;63.00;;;;;;;0.02;100.00;101506.66;7397044;19;20033;-73
2022/12/04 09:17:32;;;;;;;159.85;57.53;;;;;;;0.06;100.00;101516.22;7397403;19;20014;-72
2022/12/04 09:20:01;;;;;;;179.65;64.18;;;;;;;0.04;100.00;101510.16;7394987;19;20484;-73
2022/12/04 09:22:29;;;;;;;174.05;64.15;;;;;;;0.04;100.00;101510.16;7394602;19;20007;-74
2022/12/04 09:24:58;;;;;;;170.13;64.05;;;;;;;0.04;100.00;101509.25;7399019;19;20011;-72
2022/12/04 09:27:26;;;;;;;176.63;64.75;;;;;;;-0.01;100.00;101497.09;7401749;19;20023;-72
2022/12/04 09:29:55;;;;;;;173.35;60.38;;;;;;;0.03;100.00;101516.16;7397706;19;20019;-72
2022/12/04 09:32:24;;;;;;;184.52;66.63;;;;;;;0.03;100.00;101499.81;7394566;19;20022;-71
2022/12/04 09:34:55;;;;;;;181.02;61.78;;;;;;;0.02;100.00;101504.06;7397163;19;20035;-72
2022/12/04 09:37:23;;;;;;;185.95;61.88;;;;;;;0.05;100.00;101503.28;7394689;19;20018;-73
2022/12/04 09:39:52;;;;;;;174.77;60.55;;;;;;;0.06;100.00;101502.47;7394229;19;20477;-72
2022/12/04 09:42:39;;;;;;;179.65;61.92;;;;;;;0.06;100.00;101507.63;7393876;19;20066;-72
2022/12/04 09:45:16;;;;;;;170.90;59.22;;;;;;;0.06;100.00;101492.16;7396403;19;20514;-73
2022/12/04 09:48:00;;;;;;;155.80;53.47;;;;;;;0.04;100.00;101494.69;6262514;19;22239012;-69
2022/12/04 09:50:36;;;;;;;;;;;;;;;0.05;100.00;101490.38;7400147;19;20014;-69
2022/12/04 09:53:10;;;;;;;165.32;58.92;;;;;;;0.04;100.00;101484.38;7398710;19;20350;-69
2022/12/04 09:55:44;;;;;;;183.18;63.08;;;;;;;0.04;100.00;101484.38;7398499;19;20023;-69
2022/12/04 09:58:16;;;;;;;175.82;64.68;;;;;;;0.04;100.00;101479.19;7397009;19;20018;-70
2022/12/04 10:00:48;;;;;;;168.93;59.90;;;;;;;0.01;100.00;101473.91;7398381;19;20018;-71
2022/12/04 10:03:19;;;;;;;167.63;57.03;;;;;;;0.06;100.00;101477.53;7397356;19;20018;-70
2022/12/04 10:06:01;;;;;;;179.98;62.35;;;;;;;0.07;100.00;101475.84;7398096;19;20028;-69
2022/12/04 10:08:34;;;;;;;175.13;60.70;;;;;;;0.08;100.00;101464.69;7396607;19;20027;-71
2022/12/04 10:11:14;;;;;;;162.90;60.00;;;;;;;0.08;100.00;101465.56;7397901;19;20021;-69
2022/12/04 10:14:27;;;;;;;174.05;61.95;;;;;;;0.10;100.00;101478.50;7396718;19;20025;-69
2022/12/04 10:17:24;;;;;;;170.43;62.30;;;;;;;0.09;100.00;101472.50;7396465;19;20014;-70
2022/12/04 10:20:01;;;;;;;179.05;63.47;;;;;;;0.11;100.00;101469.94;7398269;19;20385;-71
2022/12/04 10:22:43;;;;;;;169.80;62.10;;;;;;;0.13;100.00;101457.97;7396400;19;20043;-73
2022/12/04 10:25:17;;;;;;;172.70;61.72;;;;;;;0.14;100.00;101458.03;7395560;19;20018;-71
2022/12/04 10:27:51;;;;;;;177.45;61.03;;;;;;;0.18;100.00;101463.28;7393855;19;20014;-73
2022/12/04 10:30:22;;;;;;;;;;;;;;;0.17;100.00;101457.25;7398973;19;20023;-70
2022/12/04 10:32:55;;;;;;;174.07;59.28;;;;;;;0.18;100.00;101461.59;7398107;19;19926;-71
2022/12/04 10:35:26;;;;;;;160.45;60.13;;;;;;;0.18;100.00;101466.75;7398238;19;20022;-71
2022/12/04 10:38:00;;;;;;;169.98;61.47;;;;;;;0.17;100.00;101457.25;7397750;19;20041;-71
2022/12/04 10:40:34;;;;;;;170.15;60.08;;;;;;;0.19;100.00;101452.13;7397842;19;20014;-70
2022/12/04 10:43:08;;;;;;;164.57;59.70;;;;;;;0.20;100.00;101456.47;7395414;19;20010;-69
2022/12/04 10:45:36;;;;;;;156.02;59.22;;;;;;;0.21;100.00;101455.66;7395238;19;20430;-70
2022/12/04 10:48:06;;;;;;;179.82;67.22;;;;;;;0.22;100.00;101447.09;7395094;19;20011;-71
2022/12/04 10:50:36;;;;;;;185.52;68.15;;;;;;;0.23;100.00;101449.72;7397164;19;20496;-69
2022/12/04 10:53:07;;;;;;;164.50;59.63;;;;;;;0.25;100.00;101448.06;7396088;19;20385;-70
2022/12/04 10:55:38;;;;;;;167.43;62.10;;;;;;;0.27;100.00;101443.81;7397517;19;20011;-69
2022/12/04 10:58:18;;;;;;;173.00;59.17;;;;;;;0.31;100.00;101444.78;7396562;19;20026;-69
2022/12/04 11:01:05;;;;;;;155.38;58.88;;;;;;;0.32;100.00;101437.09;7396314;19;20011;-69
2022/12/04 11:03:33;;;;;;;165.07;59.78;;;;;;;0.36;100.00;101438.06;7396211;19;20018;-70
2022/12/04 11:06:05;;;;;;;155.32;56.30;;;;;;;0.37;100.00;101436.34;7396589;19;20018;-69
2022/12/04 11:08:40;;;;;;;152.57;57.25;;;;;;;0.37;100.00;101437.25;7397680;19;20014;-71
2022/12/04 11:11:11;;;;;;;150.02;56.83;;;;;;;0.38;100.00;101432.94;7396205;19;20011;-70
2022/12/04 11:13:41;;;;;;;148.13;57.42;;;;;;;0.39;100.00;101420.09;7395071;19;20090;-71
2022/12/04 11:16:30;;;;;;;152.18;57.92;;;;;;;0.41;100.00;101417.56;7396389;19;20022;-70
2022/12/04 11:18:59;;;;;;;155.77;56.20;;;;;;;0.40;100.00;101411.50;7394031;19;20021;-70
2022/12/04 11:21:31;;;;;;;144.98;57.25;;;;;;;0.43;100.00;101416.78;7394153;19;20049;-70
2022/12/04 11:24:02;;;;;;;156.93;58.83;;;;;;;0.44;100.00;101415.06;7394906;19;20038;-70
2022/12/04 11:26:34;;;;;;;155.48;56.38;;;;;;;0.46;100.00;101416.00;7395503;19;20457;-69
2022/12/04 11:29:04;;;;;;;153.80;56.70;;;;;;;0.46;100.00;101416.84;7396889;19;20090;-72
2022/12/04 11:31:34;;;;;;;153.13;58.67;;;;;;;0.46;100.00;101416.84;7395617;19;20018;-71
2022/12/04 11:34:06;;;;;;;147.57;56.83;;;;;;;0.47;100.00;101403.13;7394304;19;20391;-72